createdAt,value
2023-03-28T00:01:54.169Z,4.97
2023-03-28T00:04:23.071Z,4.96
2023-03-28T00:06:54.012Z,4.95
2023-03-28T00:09:22.098Z,4.94
2023-03-28T00:11:50.754Z,4.92
2023-03-28T00:14:21.192Z,4.90
2023-03-28T00:16:49.213Z,4.88
2023-03-28T00:19:18.352Z,4.86
2023-03-28T00:21:51.360Z,4.84
2023-03-28T00:24:21.707Z,4.84
2023-03-28T00:26:54.646Z,4.82
2023-03-28T00:29:26.291Z,4.81
2023-03-28T00:31:54.431Z,4.81
2023-03-28T00:34:22.345Z,4.81
2023-03-28T00:36:50.854Z,4.81
2023-03-28T00:39:19.167Z,4.79
2023-03-28T00:41:47.448Z,4.78
2023-03-28T00:44:34.351Z,4.76
2023-03-28T00:47:02.495Z,4.74
2023-03-28T00:49:30.558Z,4.72
2023-03-28T00:52:03.340Z,4.70
2023-03-28T00:54:34.020Z,4.67
2023-03-28T00:57:03.170Z,4.65
2023-03-28T00:59:31.855Z,4.63
2023-03-28T01:02:00.073Z,4.61
2023-03-28T01:04:34.156Z,4.58
2023-03-28T01:07:03.134Z,4.57
2023-03-28T01:09:31.427Z,4.56
2023-03-28T01:11:59.835Z,4.57
2023-03-28T01:14:29.159Z,4.55
2023-03-28T01:17:02.597Z,4.55
2023-03-28T01:19:30.735Z,4.54
2023-03-28T01:22:08.200Z,4.54
2023-03-28T01:24:39.067Z,4.53
2023-03-28T01:27:16.073Z,4.51
2023-03-28T01:29:43.933Z,4.50
2023-03-28T01:32:35.190Z,4.50
2023-03-28T01:35:06.437Z,4.50
2023-03-28T01:37:41.073Z,4.51
2023-03-28T01:40:15.324Z,4.52
2023-03-28T01:43:00.596Z,4.52
2023-03-28T01:45:34.495Z,4.53
2023-03-28T01:48:09.052Z,4.54
2023-03-28T01:50:48.623Z,4.56
2023-03-28T01:53:25.890Z,4.57
2023-03-28T01:55:57.490Z,4.58
2023-03-28T01:58:31.739Z,4.58
2023-03-28T02:01:05.684Z,4.59
2023-03-28T02:03:36.653Z,4.60
2023-03-28T02:06:07.282Z,4.60
2023-03-28T02:08:37.246Z,4.62
2023-03-28T02:11:06.284Z,4.63
2023-03-28T02:13:36.419Z,4.66
2023-03-28T02:16:05.690Z,4.67
2023-03-28T02:18:37.080Z,4.70
2023-03-28T02:21:07.412Z,4.72
2023-03-28T02:23:39.623Z,4.75
2023-03-28T02:26:07.612Z,4.76
2023-03-28T02:28:37.098Z,4.77
2023-03-28T02:31:07.229Z,4.78
2023-03-28T02:33:39.564Z,4.78
2023-03-28T02:36:13.678Z,4.78
2023-03-28T02:38:52.814Z,4.76
2023-03-28T02:41:32.135Z,4.74
2023-03-28T02:44:02.727Z,4.73
2023-03-28T02:46:46.261Z,4.72
2023-03-28T02:49:49.516Z,4.71
2023-03-28T02:52:35.500Z,4.71
2023-03-28T02:55:17.989Z,4.71
2023-03-28T02:57:51.891Z,4.70
2023-03-28T03:00:20.113Z,4.69
2023-03-28T03:02:50.652Z,4.68
2023-03-28T03:05:22.982Z,4.67
2023-03-28T03:07:51.667Z,4.68
2023-03-28T03:10:22.253Z,4.68
2023-03-28T03:12:50.622Z,4.68
2023-03-28T03:15:18.662Z,4.67
2023-03-28T03:17:47.352Z,4.66
2023-03-28T03:20:15.390Z,4.65
2023-03-28T03:22:43.384Z,4.64
2023-03-28T03:25:14.318Z,4.64
2023-03-28T03:27:42.697Z,4.64
2023-03-28T03:30:11.786Z,4.64
2023-03-28T03:32:39.613Z,4.64
2023-03-28T03:35:07.871Z,4.64
2023-03-28T03:37:35.972Z,4.63
2023-03-28T03:40:05.843Z,4.62
2023-03-28T03:42:33.875Z,4.62
2023-03-28T03:45:02.758Z,4.62
2023-03-28T03:47:30.903Z,4.61
2023-03-28T03:50:02.696Z,4.62
2023-03-28T03:52:30.777Z,4.64
2023-03-28T03:54:58.692Z,4.66
2023-03-28T03:57:26.550Z,4.67
2023-03-28T03:59:54.468Z,4.69
2023-03-28T04:02:22.358Z,4.71
2023-03-28T04:04:50.272Z,4.73
2023-03-28T04:07:18.300Z,4.74
2023-03-28T04:09:46.287Z,4.74
2023-03-28T04:12:14.359Z,4.76
2023-03-28T04:14:42.175Z,4.77
2023-03-28T04:17:09.910Z,4.76
2023-03-28T04:19:40.672Z,4.77
2023-03-28T04:22:08.561Z,4.77
2023-03-28T04:24:37.684Z,4.77
2023-03-28T04:27:05.711Z,4.79
2023-03-28T04:29:33.759Z,4.79
2023-03-28T04:32:02.357Z,4.78
2023-03-28T04:34:30.529Z,4.78
2023-03-28T04:37:01.819Z,4.77
2023-03-28T04:39:31.397Z,4.77
2023-03-28T04:42:02.249Z,4.77
2023-03-28T04:44:31.800Z,4.79
2023-03-28T04:46:59.735Z,4.81
2023-03-28T04:49:27.924Z,4.84
2023-03-28T04:51:55.690Z,4.88
2023-03-28T04:54:23.507Z,4.91
2023-03-28T04:56:51.404Z,4.93
2023-03-28T04:59:19.680Z,4.95
2023-03-28T05:01:50.644Z,4.96
2023-03-28T05:04:19.251Z,4.98
2023-03-28T05:06:47.726Z,4.99
2023-03-28T05:09:16.453Z,4.99
2023-03-28T05:11:44.792Z,5.01
2023-03-28T05:14:12.556Z,5.02
2023-03-28T05:16:41.255Z,5.04
2023-03-28T05:19:10.169Z,5.05
2023-03-28T05:21:38.183Z,5.08
2023-03-28T05:24:07.016Z,5.10
2023-03-28T05:26:35.010Z,5.11
2023-03-28T05:29:02.842Z,5.13
2023-03-28T05:31:30.961Z,5.14
2023-03-28T05:33:58.783Z,5.15
2023-03-28T05:36:27.224Z,5.17
2023-03-28T05:38:54.946Z,5.18
2023-03-28T05:41:22.856Z,5.18
2023-03-28T05:43:50.652Z,5.19
2023-03-28T05:46:18.865Z,5.20
2023-03-28T05:49:04.401Z,5.23
2023-03-28T05:51:32.930Z,5.25
2023-03-28T05:54:01.075Z,5.28
2023-03-28T05:56:28.955Z,5.30
2023-03-28T05:58:58.637Z,5.33
2023-03-28T06:01:29.020Z,5.34
2023-03-28T06:03:57.412Z,5.37
2023-03-28T06:06:25.484Z,5.38
2023-03-28T06:08:53.512Z,5.40
2023-03-28T06:11:21.486Z,5.43
2023-03-28T06:13:52.389Z,5.46
2023-03-28T06:16:30.099Z,5.51
2023-03-28T06:19:14.280Z,5.56
2023-03-28T06:21:44.896Z,5.61
2023-03-28T06:24:13.886Z,5.66
2023-03-28T06:26:41.792Z,5.69
2023-03-28T06:29:09.856Z,5.73
2023-03-28T06:31:40.673Z,5.76
2023-03-28T06:34:08.961Z,5.79
2023-03-28T06:36:37.620Z,5.83
2023-03-28T06:39:05.461Z,5.85
2023-03-28T06:41:34.639Z,5.86
2023-03-28T06:44:05.959Z,5.86
2023-03-28T06:46:34.004Z,5.85
2023-03-28T06:49:01.817Z,5.85
2023-03-28T06:51:30.056Z,5.83
2023-03-28T06:53:59.817Z,5.79
2023-03-28T06:56:28.173Z,5.75
2023-03-28T06:58:55.973Z,5.71
2023-03-28T07:01:23.926Z,5.66
2023-03-28T07:03:52.571Z,5.61
2023-03-28T07:06:20.768Z,5.58
2023-03-28T07:08:48.655Z,5.58
2023-03-28T07:11:16.614Z,5.58
2023-03-28T07:13:47.707Z,5.62
2023-03-28T07:16:16.662Z,5.69
2023-03-28T07:18:45.203Z,5.76
2023-03-28T07:21:20.587Z,5.83
2023-03-28T07:23:49.590Z,5.92
2023-03-28T07:26:17.818Z,5.98
2023-03-28T07:28:45.708Z,6.03
2023-03-28T07:31:16.900Z,6.07
2023-03-28T07:33:44.767Z,6.10
2023-03-28T07:36:14.410Z,6.13
2023-03-28T07:38:42.343Z,6.16
2023-03-28T07:41:14.593Z,6.21
2023-03-28T07:43:42.578Z,6.27
2023-03-28T07:46:14.114Z,6.34
2023-03-28T07:48:42.719Z,6.41
2023-03-28T07:51:11.106Z,6.48
2023-03-28T07:53:40.288Z,6.56
2023-03-28T07:56:10.746Z,6.65
2023-03-28T07:58:39.638Z,6.75
2023-03-28T08:01:08.819Z,6.85
2023-03-28T08:03:37.704Z,6.93
2023-03-28T08:06:16.980Z,7.00
2023-03-28T08:08:56.217Z,7.06
2023-03-28T08:11:24.697Z,7.12
2023-03-28T08:14:18.190Z,7.19
2023-03-28T08:16:46.850Z,7.25
2023-03-28T08:19:15.084Z,7.31
2023-03-28T08:21:46.870Z,7.36
2023-03-28T08:24:29.033Z,7.40
2023-03-28T08:27:04.452Z,7.43
2023-03-28T08:29:36.372Z,7.48
2023-03-28T08:32:06.574Z,7.51
2023-03-28T08:34:35.650Z,7.52
2023-03-28T08:37:05.699Z,7.51
2023-03-28T08:39:37.766Z,7.47
2023-03-28T08:42:17.965Z,7.43
2023-03-28T08:44:55.103Z,7.43
2023-03-28T08:47:27.922Z,7.45
2023-03-28T08:49:59.336Z,7.45
2023-03-28T08:52:28.417Z,7.46
2023-03-28T08:55:00.325Z,7.48
2023-03-28T08:57:48.428Z,7.52
2023-03-28T09:00:22.818Z,7.60
2023-03-28T09:02:52.173Z,7.67
2023-03-28T09:05:44.715Z,7.76
2023-03-28T09:08:17.631Z,7.88
2023-03-28T09:11:05.998Z,7.99
2023-03-28T09:14:02.320Z,8.10
2023-03-28T09:16:36.723Z,8.24
2023-03-28T09:19:04.642Z,8.31
2023-03-28T09:22:12.814Z,8.39
2023-03-28T09:24:43.771Z,8.47
2023-03-28T09:27:14.734Z,8.50
2023-03-28T09:29:43.182Z,8.48
2023-03-28T09:32:31.458Z,8.49
2023-03-28T09:34:59.817Z,8.51
2023-03-28T09:37:30.491Z,8.51
2023-03-28T09:40:08.194Z,8.54
2023-03-28T09:42:50.646Z,8.56
2023-03-28T09:45:24.123Z,8.57
2023-03-28T09:47:55.248Z,8.57
2023-03-28T09:50:23.892Z,8.57
2023-03-28T09:52:51.997Z,8.56
2023-03-28T09:55:21.762Z,8.53
2023-03-28T09:58:15.368Z,8.49
2023-03-28T10:00:46.745Z,8.45
2023-03-28T10:03:29.953Z,8.39
2023-03-28T10:06:20.071Z,8.36
2023-03-28T10:08:47.837Z,8.36
2023-03-28T10:11:17.721Z,8.35
2023-03-28T10:13:49.600Z,8.34
2023-03-28T10:16:25.940Z,8.33
2023-03-28T10:18:54.226Z,8.33
2023-03-28T10:21:24.201Z,8.31
2023-03-28T10:24:08.828Z,8.31
2023-03-28T10:26:37.061Z,8.34
2023-03-28T10:29:06.338Z,8.35
2023-03-28T10:31:59.481Z,8.39
2023-03-28T10:34:31.666Z,8.43
2023-03-28T10:36:59.745Z,8.48
2023-03-28T10:39:29.679Z,8.53
2023-03-28T10:41:59.640Z,8.55
2023-03-28T10:44:29.159Z,8.59
2023-03-28T10:47:00.941Z,8.63
2023-03-28T10:49:31.683Z,8.62
2023-03-28T10:52:00.855Z,8.58
2023-03-28T10:54:28.644Z,8.54
2023-03-28T10:57:13.158Z,8.50
2023-03-28T10:59:47.237Z,8.48
2023-03-28T11:02:15.190Z,8.50
2023-03-28T11:04:59.645Z,8.51
2023-03-28T11:07:57.256Z,8.53
2023-03-28T11:10:25.139Z,8.57
2023-03-28T11:13:12.290Z,8.60
2023-03-28T11:15:52.100Z,8.64
2023-03-28T11:18:20.120Z,8.74
2023-03-28T11:20:51.361Z,8.87
2023-03-28T11:23:31.552Z,9.02
2023-03-28T11:26:09.681Z,9.19
2023-03-28T11:28:37.579Z,9.33
2023-03-28T11:31:05.976Z,9.43
2023-03-28T11:33:49.207Z,9.49
2023-03-28T11:36:22.212Z,9.59
2023-03-28T11:38:57.303Z,9.65
2023-03-28T11:41:30.791Z,9.65
2023-03-28T11:44:04.451Z,9.59
2023-03-28T11:46:34.967Z,9.55
2023-03-28T11:49:22.945Z,9.53
2023-03-28T11:51:59.112Z,9.53
2023-03-28T11:54:33.404Z,9.51
2023-03-28T11:57:04.315Z,9.43
2023-03-28T11:59:43.872Z,9.36
2023-03-28T12:02:12.459Z,9.25
2023-03-28T12:04:49.028Z,9.13
2023-03-28T12:07:20.378Z,9.00
2023-03-28T12:09:59.252Z,8.90
2023-03-28T12:12:47.328Z,8.85
2023-03-28T12:15:24.508Z,8.87
2023-03-28T12:18:17.194Z,8.96
2023-03-28T12:20:59.879Z,9.05
2023-03-28T12:24:01.783Z,9.18
2023-03-28T12:26:32.550Z,9.38
2023-03-28T12:29:05.429Z,9.61
2023-03-28T12:31:41.670Z,9.75
2023-03-28T12:34:12.392Z,9.79
2023-03-28T12:36:51.897Z,9.80
2023-03-28T12:39:35.686Z,9.76
2023-03-28T12:42:06.660Z,9.69
2023-03-28T12:44:41.012Z,9.66
2023-03-28T12:47:17.095Z,9.63
2023-03-28T12:49:57.039Z,9.68
2023-03-28T12:52:32.649Z,9.73
2023-03-28T12:55:02.644Z,9.75
2023-03-28T12:57:49.606Z,9.80
2023-03-28T13:00:25.721Z,9.80
2023-03-28T13:03:00.032Z,9.80
2023-03-28T13:05:31.555Z,9.78
2023-03-28T13:08:02.739Z,9.80
2023-03-28T13:10:56.935Z,9.81
2023-03-28T13:13:36.551Z,9.78
2023-03-28T13:16:13.857Z,9.76
2023-03-28T13:18:49.194Z,9.76
2023-03-28T13:21:37.138Z,9.77
2023-03-28T13:24:11.370Z,9.83
2023-03-28T13:27:09.062Z,9.93
2023-03-28T13:29:53.565Z,9.95
2023-03-28T13:32:23.078Z,9.86
2023-03-28T13:35:04.285Z,9.76
2023-03-28T13:37:44.235Z,9.72
2023-03-28T13:40:30.987Z,9.60
2023-03-28T13:42:59.153Z,9.42
2023-03-28T13:45:28.175Z,9.25
2023-03-28T13:48:06.382Z,9.12
2023-03-28T13:50:41.288Z,9.02
2023-03-28T13:53:09.171Z,8.97
2023-03-28T13:55:38.646Z,8.96
2023-03-28T13:58:11.168Z,8.99
2023-03-28T14:00:39.550Z,9.04
2023-03-28T14:03:13.612Z,9.07
2023-03-28T14:05:45.741Z,9.09
2023-03-28T14:08:13.532Z,9.14
2023-03-28T14:10:45.417Z,9.21
2023-03-28T14:13:15.520Z,9.27
2023-03-28T14:15:44.581Z,9.35
2023-03-28T14:18:17.092Z,9.43
2023-03-28T14:20:46.977Z,9.49
2023-03-28T14:23:38.120Z,9.50
2023-03-28T14:26:15.856Z,9.52
2023-03-28T14:28:44.925Z,9.51
2023-03-28T14:31:33.296Z,9.49
2023-03-28T14:34:12.395Z,9.51
2023-03-28T14:36:58.987Z,9.48
2023-03-28T14:39:28.853Z,9.40
2023-03-28T14:41:58.208Z,9.32
2023-03-28T14:44:26.243Z,9.24
2023-03-28T14:46:56.701Z,9.19
2023-03-28T14:49:25.311Z,9.16
2023-03-28T14:52:06.432Z,9.14
2023-03-28T14:54:38.959Z,9.13
2023-03-28T14:57:08.014Z,9.14
2023-03-28T14:59:43.051Z,9.16
2023-03-28T15:02:20.512Z,9.17
2023-03-28T15:04:49.871Z,9.17
2023-03-28T15:07:24.593Z,9.14
2023-03-28T15:10:09.369Z,9.10
2023-03-28T15:13:00.927Z,9.07
2023-03-28T15:15:30.321Z,9.05
2023-03-28T15:18:01.499Z,9.05
2023-03-28T15:20:34.862Z,9.06
2023-03-28T15:23:05.960Z,9.10
2023-03-28T15:25:35.452Z,9.15
2023-03-28T15:28:06.559Z,9.20
2023-03-28T15:30:36.227Z,9.25
2023-03-28T15:33:05.702Z,9.26
2023-03-28T15:35:40.189Z,9.26
2023-03-28T15:38:09.492Z,9.26
2023-03-28T15:40:42.188Z,9.25
2023-03-28T15:43:29.245Z,9.23
2023-03-28T15:45:59.808Z,9.16
2023-03-28T15:48:29.798Z,9.07
2023-03-28T15:50:58.258Z,8.95
2023-03-28T15:53:28.654Z,8.86
2023-03-28T15:55:59.449Z,8.81
2023-03-28T15:58:27.442Z,8.77
2023-03-28T16:00:56.100Z,8.75
2023-03-28T16:03:24.098Z,8.75
2023-03-28T16:06:09.665Z,8.73
2023-03-28T16:08:45.568Z,8.69
2023-03-28T16:11:19.158Z,8.65
2023-03-28T16:13:47.784Z,8.62
2023-03-28T16:16:22.272Z,8.58
2023-03-28T16:18:50.586Z,8.56
2023-03-28T16:21:19.779Z,8.55
2023-03-28T16:23:48.060Z,8.55
2023-03-28T16:26:16.243Z,8.55
2023-03-28T16:28:44.249Z,8.55
2023-03-28T16:31:15.864Z,8.53
2023-03-28T16:33:43.971Z,8.52
2023-03-28T16:36:13.261Z,8.54
2023-03-28T16:38:42.205Z,8.58
2023-03-28T16:41:10.457Z,8.62
2023-03-28T16:43:38.755Z,8.67
2023-03-28T16:46:07.576Z,8.73
2023-03-28T16:48:36.535Z,8.77
2023-03-28T16:51:07.313Z,8.79
2023-03-28T16:53:45.539Z,8.77
2023-03-28T16:56:19.149Z,8.72
2023-03-28T16:58:47.094Z,8.67
2023-03-28T17:01:19.417Z,8.65
2023-03-28T17:03:47.862Z,8.64
2023-03-28T17:06:16.783Z,8.62
2023-03-28T17:08:44.909Z,8.59
2023-03-28T17:11:13.839Z,8.57
2023-03-28T17:13:43.055Z,8.53
2023-03-28T17:16:11.377Z,8.51
2023-03-28T17:18:39.433Z,8.50
2023-03-28T17:21:09.133Z,8.49
2023-03-28T17:23:38.137Z,8.45
2023-03-28T17:26:07.894Z,8.43
2023-03-28T17:28:39.196Z,8.39
2023-03-28T17:31:08.268Z,8.37
2023-03-28T17:33:36.782Z,8.36
2023-03-28T17:36:17.739Z,8.35
2023-03-28T17:38:47.213Z,8.35
2023-03-28T17:41:15.133Z,8.34
2023-03-28T17:43:43.778Z,8.32
2023-03-28T17:46:13.059Z,8.30
2023-03-28T17:48:41.964Z,8.28
2023-03-28T17:51:10.734Z,8.27
2023-03-28T17:53:39.573Z,8.25
2023-03-28T17:56:08.676Z,8.25
2023-03-28T17:58:38.377Z,8.27
2023-03-28T18:01:10.682Z,8.30
2023-03-28T18:03:41.768Z,8.33
2023-03-28T18:06:09.693Z,8.35
2023-03-28T18:08:38.056Z,8.36
2023-03-28T18:11:07.940Z,8.36
2023-03-28T18:13:37.010Z,8.36
2023-03-28T18:16:06.658Z,8.36
2023-03-28T18:18:34.855Z,8.35
2023-03-28T18:21:04.268Z,8.34
2023-03-28T18:23:32.168Z,8.34
2023-03-28T18:26:00.179Z,8.33
2023-03-28T18:28:28.330Z,8.32
2023-03-28T18:30:57.317Z,8.31
2023-03-28T18:33:25.990Z,8.30
2023-03-28T18:35:53.794Z,8.28
2023-03-28T18:38:21.589Z,8.28
2023-03-28T18:40:52.332Z,8.26
2023-03-28T18:43:21.457Z,8.23
2023-03-28T18:45:54.232Z,8.22
2023-03-28T18:48:22.859Z,8.22
2023-03-28T18:50:50.948Z,8.21
2023-03-28T18:53:19.005Z,8.21
2023-03-28T18:55:46.842Z,8.22
2023-03-28T18:58:14.927Z,8.23
2023-03-28T19:00:44.068Z,8.24
2023-03-28T19:03:17.719Z,8.25
2023-03-28T19:05:45.809Z,8.26
2023-03-28T19:08:13.733Z,8.27
2023-03-28T19:10:46.422Z,8.26
2023-03-28T19:13:14.363Z,8.25
2023-03-28T19:15:42.218Z,8.23
2023-03-28T19:18:11.239Z,8.22
2023-03-28T19:20:39.408Z,8.20
2023-03-28T19:23:07.780Z,8.19
2023-03-28T19:25:35.614Z,8.16
2023-03-28T19:28:03.894Z,8.14
2023-03-28T19:30:31.779Z,8.13
2023-03-28T19:33:00.772Z,8.12
2023-03-28T19:35:28.698Z,8.12
2023-03-28T19:37:56.681Z,8.12
2023-03-28T19:40:26.454Z,8.12
2023-03-28T19:42:54.567Z,8.11
2023-03-28T19:45:23.169Z,8.07
2023-03-28T19:47:52.083Z,8.03
2023-03-28T19:50:20.335Z,8.00
2023-03-28T19:52:51.219Z,7.97
2023-03-28T19:55:19.701Z,7.95
2023-03-28T19:57:47.566Z,7.94
2023-03-28T20:00:17.197Z,7.93
2023-03-28T20:02:45.156Z,7.93
2023-03-28T20:05:13.341Z,7.94
2023-03-28T20:07:41.678Z,7.94
2023-03-28T20:10:12.281Z,7.93
2023-03-28T20:12:41.135Z,7.93
2023-03-28T20:15:09.356Z,7.94
2023-03-28T20:17:37.931Z,7.96
2023-03-28T20:20:08.388Z,7.98
2023-03-28T20:22:36.481Z,8.01
2023-03-28T20:25:04.562Z,8.02
2023-03-28T20:27:33.778Z,8.03
2023-03-28T20:30:02.161Z,8.03
2023-03-28T20:32:30.071Z,8.04
2023-03-28T20:34:58.587Z,8.04
2023-03-28T20:37:28.382Z,8.03
2023-03-28T20:39:56.647Z,8.02
2023-03-28T20:42:29.925Z,8.02
2023-03-28T20:44:57.851Z,8.01
2023-03-28T20:47:25.970Z,8.01
2023-03-28T20:49:59.155Z,8.01
2023-03-28T20:52:27.149Z,8.02
2023-03-28T20:54:55.100Z,8.03
2023-03-28T20:57:25.589Z,8.02
2023-03-28T20:59:55.356Z,8.02
2023-03-28T21:02:23.356Z,8.03
2023-03-28T21:04:51.806Z,8.02
2023-03-28T21:07:19.781Z,8.03
2023-03-28T21:09:47.635Z,8.02
2023-03-28T21:12:15.750Z,8.01
2023-03-28T21:14:43.677Z,7.97
2023-03-28T21:17:22.005Z,7.92
2023-03-28T21:19:49.881Z,7.84
2023-03-28T21:22:18.035Z,7.77
2023-03-28T21:24:45.954Z,7.69
2023-03-28T21:27:14.613Z,7.63
2023-03-28T21:30:08.604Z,7.60
2023-03-28T21:32:36.712Z,7.61
2023-03-28T21:35:05.447Z,7.63
2023-03-28T21:37:57.780Z,7.67
2023-03-28T21:40:26.117Z,7.70
2023-03-28T21:42:54.503Z,7.74
2023-03-28T21:45:24.369Z,7.76
2023-03-28T21:47:52.319Z,7.79
2023-03-28T21:50:20.477Z,7.81
2023-03-28T21:52:48.616Z,7.84
2023-03-28T21:55:17.324Z,7.86
2023-03-28T21:58:11.107Z,7.88
2023-03-28T22:00:39.849Z,7.90
2023-03-28T22:03:07.931Z,7.92
2023-03-28T22:05:43.109Z,7.96
2023-03-28T22:08:15.021Z,8.00
2023-03-28T22:10:45.915Z,8.02
2023-03-28T22:13:14.197Z,8.04
2023-03-28T22:16:09.494Z,8.06
2023-03-28T22:18:37.715Z,8.09
2023-03-28T22:21:05.608Z,8.11
2023-03-28T22:23:33.943Z,8.10
2023-03-28T22:26:03.734Z,8.09
2023-03-28T22:28:31.718Z,8.08
2023-03-28T22:31:00.780Z,8.04
2023-03-28T22:33:32.711Z,8.03
2023-03-28T22:36:01.909Z,8.03
2023-03-28T22:38:30.043Z,8.04
2023-03-28T22:40:58.172Z,8.05
2023-03-28T22:43:27.036Z,8.06
2023-03-28T22:45:59.892Z,8.07
2023-03-28T22:48:33.416Z,8.10
2023-03-28T22:51:01.894Z,8.12
2023-03-28T22:53:31.632Z,8.15
2023-03-28T22:56:03.205Z,8.16
2023-03-28T22:58:31.512Z,8.20
2023-03-28T23:01:00.001Z,8.21
2023-03-28T23:03:28.785Z,8.22
2023-03-28T23:06:01.177Z,8.23
2023-03-28T23:08:29.253Z,8.24
2023-03-28T23:10:57.459Z,8.25
2023-03-28T23:13:25.229Z,8.27
2023-03-28T23:15:55.596Z,8.28
2023-03-28T23:18:23.663Z,8.29
2023-03-28T23:20:51.802Z,8.29
2023-03-28T23:23:20.715Z,8.30
2023-03-28T23:26:01.032Z,8.31
2023-03-28T23:28:29.330Z,8.31
2023-03-28T23:30:57.257Z,8.31
2023-03-28T23:33:25.324Z,8.31
2023-03-28T23:35:53.491Z,8.30
2023-03-28T23:38:21.731Z,8.31
2023-03-28T23:40:49.835Z,8.31
2023-03-28T23:43:17.784Z,8.32
2023-03-28T23:45:46.295Z,8.32
2023-03-28T23:48:14.876Z,8.31
2023-03-28T23:50:45.886Z,8.30
2023-03-28T23:53:18.165Z,8.29
2023-03-28T23:55:46.312Z,8.28
2023-03-28T23:58:15.683Z,8.26
